Time;durP1;ratioP1;P1;durP2;ratioP2;P2;SDS_P1;SDS_P2;PMS_P1;PMS_P2;Temp;Humidity;BMP_temperature;BMP_pressure;BME280_temperature;BME280_humidity;BME280_pressure;Samples;Min_cycle;Max_cycle;Signal;HPM_P1;HPM_P2
2023/12/02 00:00:07;;;;;;;30.63;19.92;;;;;;;4.31;100.00;100006.84;5013383;28;20038;-69
2023/12/02 00:02:33;;;;;;;30.90;18.05;;;;;;;4.17;100.00;99995.88;5013555;28;20042;-65
2023/12/02 00:04:58;;;;;;;31.45;19.38;;;;;;;4.15;100.00;100015.34;5013645;28;20526;-65
2023/12/02 00:07:24;;;;;;;31.50;20.58;;;;;;;4.24;100.00;100020.97;5013610;28;20029;-65
2023/12/02 00:09:49;;;;;;;29.77;19.80;;;;;;;4.19;100.00;100022.41;5013395;28;20026;-65
2023/12/02 00:12:15;;;;;;;33.33;20.33;;;;;;;3.94;100.00;99976.72;5013308;28;20037;-65
2023/12/02 00:14:40;;;;;;;29.65;19.52;;;;;;;4.25;100.00;100016.72;5013206;28;20033;-64
2023/12/02 00:17:06;;;;;;;29.13;19.50;;;;;;;3.74;100.00;99938.22;5012168;28;20623;-68
2023/12/02 00:19:31;;;;;;;27.02;17.95;;;;;;;4.00;100.00;100002.59;5013336;28;20044;-65
2023/12/02 00:21:56;;;;;;;27.60;19.98;;;;;;;4.01;100.00;100007.81;5013243;28;20492;-66
2023/12/02 00:24:22;;;;;;;26.67;19.02;;;;;;;4.09;100.00;100009.88;5013127;28;20076;-65
2023/12/02 00:26:47;;;;;;;30.70;20.77;;;;;;;4.18;100.00;100012.97;5012949;28;20484;-65
2023/12/02 00:29:15;;;;;;;29.73;18.38;;;;;;;4.11;100.00;99996.44;5013032;28;20033;-65
2023/12/02 00:31:40;;;;;;;30.08;18.13;;;;;;;4.13;100.00;99989.72;5012895;28;20495;-65
2023/12/02 00:34:06;;;;;;;30.40;18.70;;;;;;;4.20;100.00;100003.72;5013139;28;20026;-68
2023/12/02 00:36:32;;;;;;;29.50;18.15;;;;;;;4.17;100.00;100006.09;5013078;28;20157;-64
2023/12/02 00:38:57;;;;;;;29.10;18.08;;;;;;;4.11;100.00;99990.44;5012562;28;20033;-65
2023/12/02 00:41:23;;;;;;;30.83;20.08;;;;;;;4.09;100.00;99995.47;5012914;28;20059;-65
2023/12/02 00:43:48;;;;;;;25.70;18.13;;;;;;;3.95;100.00;100001.47;4994074;28;20507;-65
2023/12/02 00:46:14;;;;;;;25.90;16.63;;;;;;;3.94;100.00;100005.72;5013068;28;20033;-63
2023/12/02 00:48:39;;;;;;;26.48;17.38;;;;;;;3.92;100.00;100016.63;5012799;28;20057;-64
2023/12/02 00:51:05;;;;;;;27.13;16.40;;;;;;;3.75;100.00;100016.56;5012655;28;20037;-66
2023/12/02 00:53:30;;;;;;;24.95;17.90;;;;;;;3.48;100.00;100011.63;5011434;28;20477;-65
2023/12/02 00:55:57;;;;;;;26.60;17.70;;;;;;;3.52;100.00;100008.44;5012107;28;20464;-69
2023/12/02 00:58:22;;;;;;;24.98;17.50;;;;;;;2.98;100.00;99902.41;5009764;28;20038;-63
2023/12/02 01:00:48;;;;;;;28.90;18.95;;;;;;;3.43;100.00;99982.41;5009683;28;20554;-65
2023/12/02 01:03:13;;;;;;;28.30;17.55;;;;;;;3.63;100.00;100001.41;5009668;28;20112;-65
2023/12/02 01:05:39;;;;;;;26.38;17.08;;;;;;;3.15;100.00;99894.06;5009839;28;20183;-63
2023/12/02 01:08:04;;;;;;;28.95;19.25;;;;;;;3.72;100.00;99996.81;5009507;28;20046;-69
2023/12/02 01:10:30;;;;;;;29.38;19.20;;;;;;;3.66;100.00;99982.84;5009616;28;20115;-65
2023/12/02 01:12:55;;;;;;;32.28;19.75;;;;;;;3.47;100.00;99957.94;5009441;28;20168;-64
2023/12/02 01:15:21;;;;;;;33.03;20.02;;;;;;;3.32;100.00;99957.94;5009554;28;20095;-64
2023/12/02 01:17:46;;;;;;;31.98;19.55;;;;;;;3.46;100.00;99985.13;4992891;28;20111;-64
2023/12/02 01:20:12;;;;;;;29.23;19.35;;;;;;;3.55;100.00;99979.66;5009578;28;20451;-65
2023/12/02 01:22:37;;;;;;;29.33;19.02;;;;;;;3.64;100.00;99982.75;5008809;28;20104;-64
2023/12/02 01:25:03;;;;;;;26.75;18.27;;;;;;;3.69;100.00;99966.03;5009350;28;20116;-64
2023/12/02 01:27:28;;;;;;;27.70;17.95;;;;;;;3.69;100.00;99971.13;5008920;28;20061;-65
2023/12/02 01:29:54;;;;;;;28.77;18.08;;;;;;;3.55;100.00;99974.56;5010726;28;20566;-65
2023/12/02 01:32:19;;;;;;;37.70;23.75;;;;;;;3.42;100.00;99974.69;5011714;28;20044;-64
2023/12/02 01:34:46;;;;;;;34.33;20.88;;;;;;;3.49;100.00;99974.22;5011833;28;20043;-64
2023/12/02 01:37:11;;;;;;;29.70;19.95;;;;;;;3.54;100.00;99973.69;5011846;28;20084;-63
2023/12/02 01:39:36;;;;;;;30.92;19.77;;;;;;;3.43;100.00;99948.34;5010282;28;20030;-65
2023/12/02 01:42:02;;;;;;;28.30;19.42;;;;;;;3.47;100.00;99950.28;5012028;28;20096;-65
2023/12/02 01:44:28;;;;;;;33.90;22.85;;;;;;;3.59;100.00;99970.50;5011596;28;20057;-63
2023/12/02 01:46:54;;;;;;;32.40;21.48;;;;;;;3.51;100.00;99964.97;5011663;28;20065;-64
2023/12/02 01:49:20;;;;;;;29.38;19.52;;;;;;;3.22;100.00;99890.22;5011938;28;20034;-64
2023/12/02 01:51:46;;;;;;;37.45;23.88;;;;;;;3.70;100.00;99960.13;5011451;28;20109;-71
2023/12/02 01:54:11;;;;;;;29.58;20.17;;;;;;;3.75;100.00;99962.06;5011315;28;20145;-64
2023/12/02 01:56:37;;;;;;;31.15;20.20;;;;;;;3.75;100.00;99960.41;5011445;28;20042;-64
2023/12/02 01:59:03;;;;;;;31.25;19.23;;;;;;;3.64;100.00;99949.56;5011486;28;20030;-64
2023/12/02 02:01:29;;;;;;;28.27;19.25;;;;;;;2.89;100.00;99822.06;5011325;28;20135;-65
2023/12/02 02:03:56;;;;;;;30.38;20.60;;;;;;;3.75;100.00;99973.16;5011213;28;20159;-63
2023/12/02 02:06:22;;;;;;;29.83;18.73;;;;;;;3.78;100.00;99957.13;5010951;28;20036;-64
2023/12/02 02:08:47;;;;;;;30.10;18.42;;;;;;;3.68;100.00;99958.28;5011159;28;20510;-64
2023/12/02 02:11:13;;;;;;;28.20;18.73;;;;;;;3.66;100.00;99957.31;5011240;28;20034;-65
2023/12/02 02:13:38;;;;;;;29.77;19.58;;;;;;;3.62;100.00;99963.91;4992390;28;20042;-71
2023/12/02 02:16:04;;;;;;;29.33;18.65;;;;;;;3.44;100.00;99938.25;5011338;28;20082;-67
2023/12/02 02:18:30;;;;;;;30.33;17.52;;;;;;;3.60;100.00;99954.41;5011370;28;20033;-64
2023/12/02 02:20:56;;;;;;;27.15;17.88;;;;;;;3.69;100.00;99960.91;5011216;28;20041;-64
2023/12/02 02:23:23;;;;;;;28.77;18.15;;;;;;;3.63;100.00;99954.59;5009510;28;20030;-65
2023/12/02 02:25:50;;;;;;;26.00;17.30;;;;;;;3.58;100.00;99943.22;5010873;28;20037;-64
2023/12/02 02:28:24;;;;;;;28.48;17.75;;;;;;;3.72;100.00;99955.09;5011024;28;20127;-64
2023/12/02 02:30:50;;;;;;;25.33;18.27;;;;;;;3.72;100.00;99955.09;5010978;28;20461;-64
2023/12/02 02:33:17;;;;;;;30.13;18.60;;;;;;;3.78;100.00;99957.13;5011092;28;20060;-65
2023/12/02 02:35:45;;;;;;;31.40;19.52;;;;;;;3.58;100.00;99933.00;5011017;28;20108;-63
2023/12/02 02:38:11;;;;;;;27.52;17.30;;;;;;;2.86;100.00;99856.72;5010884;28;20400;-63
2023/12/02 02:40:37;;;;;;;27.63;18.08;;;;;;;3.26;100.00;99943.16;5010912;28;20037;-64
2023/12/02 02:43:03;;;;;;;28.15;17.67;;;;;;;3.18;100.00;99937.63;5011005;28;20033;-65
2023/12/02 02:45:29;;;;;;;27.20;17.98;;;;;;;3.35;100.00;99961.56;5011022;28;20029;-65
2023/12/02 02:47:54;;;;;;;29.88;18.23;;;;;;;3.33;100.00;99960.59;5010746;28;20029;-65
2023/12/02 02:50:20;;;;;;;26.05;18.02;;;;;;;3.29;100.00;99951.00;5010777;28;20029;-64
2023/12/02 02:52:46;;;;;;;24.77;16.50;;;;;;;3.31;100.00;99953.63;5010818;28;20034;-65
2023/12/02 02:55:12;;;;;;;31.85;18.35;;;;;;;3.36;100.00;99950.53;5025927;28;20026;-65
2023/12/02 02:57:38;;;;;;;28.35;17.77;;;;;;;3.36;100.00;99945.44;5010323;28;20073;-65
2023/12/02 03:00:09;;;;;;;28.38;18.33;;;;;;;3.43;100.00;99959.44;5010840;28;20065;-68
2023/12/02 03:02:37;;;;;;;25.50;17.77;;;;;;;3.38;100.00;99961.72;5010789;28;20038;-71
2023/12/02 03:05:04;;;;;;;28.15;18.65;;;;;;;3.23;100.00;99943.88;5010659;28;20419;-66
2023/12/02 03:07:30;;;;;;;28.15;18.77;;;;;;;3.21;100.00;99942.88;5010607;28;20458;-65
2023/12/02 03:09:56;;;;;;;25.60;17.92;;;;;;;3.38;100.00;99978.72;5010743;28;20033;-65
2023/12/02 03:12:23;;;;;;;26.63;18.08;;;;;;;3.26;100.00;99953.38;5010546;28;20037;-64
2023/12/02 03:14:48;;;;;;;25.83;17.85;;;;;;;3.41;100.00;99971.22;5010804;28;20042;-65
2023/12/02 03:17:14;;;;;;;25.00;16.95;;;;;;;3.40;100.00;99964.34;5014120;28;20034;-65
2023/12/02 03:19:39;;;;;;;31.25;19.42;;;;;;;3.33;100.00;99952.94;4993719;28;20041;-68
2023/12/02 03:22:05;;;;;;;25.58;16.52;;;;;;;3.24;100.00;99953.28;5013965;28;20137;-69
2023/12/02 03:24:31;;;;;;;25.60;16.95;;;;;;;3.07;100.00;99944.63;5014350;28;20088;-64
2023/12/02 03:26:56;;;;;;;24.42;17.38;;;;;;;2.91;100.00;99927.56;5014176;28;20579;-64
2023/12/02 03:29:22;;;;;;;28.45;18.55;;;;;;;2.56;100.00;99849.03;5014200;28;20125;-64
2023/12/02 03:31:47;;;;;;;29.77;19.67;;;;;;;3.11;100.00;99932.94;5013641;28;20030;-64
2023/12/02 03:34:13;;;;;;;26.15;17.23;;;;;;;3.16;100.00;99951.94;5013845;28;20112;-64
2023/12/02 03:36:39;;;;;;;29.02;18.23;;;;;;;3.15;100.00;99952.72;4995208;28;20124;-63
2023/12/02 03:39:05;;;;;;;27.73;18.25;;;;;;;3.16;100.00;99949.41;5014054;28;20472;-71
2023/12/02 03:41:31;;;;;;;31.92;18.55;;;;;;;3.17;100.00;99942.63;5013638;28;20500;-63
2023/12/02 03:43:56;;;;;;;27.50;18.40;;;;;;;3.17;100.00;99935.00;5014284;28;20072;-63
2023/12/02 03:46:22;;;;;;;31.98;20.92;;;;;;;2.41;100.00;99800.59;5013737;28;20033;-66
2023/12/02 03:48:47;;;;;;;27.52;18.25;;;;;;;3.12;100.00;99931.28;5013606;28;20109;-64
2023/12/02 03:51:13;;;;;;;28.70;17.27;;;;;;;3.11;100.00;99924.44;5013725;28;20038;-69
2023/12/02 03:53:39;;;;;;;32.47;18.58;;;;;;;3.05;100.00;99930.94;5013852;28;20092;-63
2023/12/02 03:56:06;;;;;;;27.13;18.48;;;;;;;3.04;100.00;99936.81;5013729;28;20041;-70
2023/12/02 03:58:31;;;;;;;29.65;17.85;;;;;;;2.62;100.00;99859.59;5013800;28;20484;-65
2023/12/02 04:00:57;;;;;;;26.83;17.80;;;;;;;3.01;100.00;99936.63;5014027;28;20037;-71
2023/12/02 04:03:22;;;;;;;31.55;18.88;;;;;;;2.43;100.00;99827.94;5013180;28;20030;-64
2023/12/02 04:05:51;;;;;;;30.67;19.52;;;;;;;2.86;100.00;99895.81;5012153;28;20021;-64
2023/12/02 04:08:17;;;;;;;29.27;19.25;;;;;;;3.01;100.00;99941.72;5013524;28;20553;-64
2023/12/02 04:10:42;;;;;;;31.40;20.65;;;;;;;2.84;100.00;99934.75;5013317;28;20029;-63
2023/12/02 04:13:08;;;;;;;30.25;20.10;;;;;;;2.84;100.00;99944.97;5013479;28;20076;-69
2023/12/02 04:15:34;;;;;;;26.45;19.15;;;;;;;2.79;100.00;99919.22;5013356;28;20022;-66
2023/12/02 04:18:00;;;;;;;34.90;23.17;;;;;;;2.74;100.00;99928.22;5012583;28;20026;-64
2023/12/02 04:20:26;;;;;;;36.25;21.67;;;;;;;2.64;100.00;99915.75;5013209;28;20546;-64
2023/12/02 04:22:52;;;;;;;29.05;19.95;;;;;;;2.49;100.00;99903.81;5013072;28;20026;-63
2023/12/02 04:25:18;;;;;;;30.25;17.98;;;;;;;2.24;100.00;99842.91;5012655;28;20053;-65
2023/12/02 04:27:44;;;;;;;31.38;18.08;;;;;;;2.52;100.00;99911.66;5012757;28;20042;-63
2023/12/02 04:30:10;;;;;;;31.73;19.77;;;;;;;2.50;100.00;99909.81;5013086;28;20041;-63
2023/12/02 04:32:35;;;;;;;29.65;18.17;;;;;;;2.14;100.00;99825.31;4994124;28;20045;-63
2023/12/02 04:35:01;;;;;;;31.30;18.77;;;;;;;2.50;100.00;99903.03;5012819;28;20033;-63
2023/12/02 04:37:26;;;;;;;37.75;23.40;;;;;;;2.45;100.00;99891.69;5012978;28;20057;-64
2023/12/02 04:39:54;;;;;;;41.95;26.08;;;;;;;2.42;100.00;99897.50;5027092;28;20052;-65
2023/12/02 04:42:19;;;;;;;43.20;25.30;;;;;;;2.54;100.00;99920.31;5012953;28;20033;-63
2023/12/02 04:44:45;;;;;;;43.63;24.42;;;;;;;2.50;100.00;99915.78;5012832;28;20742;-63
2023/12/02 04:47:10;;;;;;;40.45;23.33;;;;;;;2.54;100.00;99901.56;5012844;28;20405;-65
2023/12/02 04:49:36;;;;;;;45.88;27.67;;;;;;;2.52;100.00;99898.06;5012604;28;20029;-65
2023/12/02 04:52:01;;;;;;;44.22;26.33;;;;;;;2.55;100.00;99890.59;5012519;28;20127;-67
2023/12/02 04:54:27;;;;;;;43.88;27.83;;;;;;;2.48;100.00;99876.63;5012815;28;20053;-64
2023/12/02 04:56:52;;;;;;;40.17;24.70;;;;;;;2.42;100.00;99905.13;5011085;28;20026;-64
2023/12/02 04:59:18;;;;;;;38.42;22.70;;;;;;;2.23;100.00;99910.78;5012266;28;20105;-65
2023/12/02 05:01:43;;;;;;;33.60;20.63;;;;;;;2.14;100.00;99883.88;5012326;28;20029;-65
2023/12/02 05:04:09;;;;;;;35.85;22.13;;;;;;;1.97;100.00;99868.47;5010964;28;20477;-65
2023/12/02 05:06:34;;;;;;;34.08;22.00;;;;;;;2.14;100.00;99891.53;5012605;28;20018;-64
2023/12/02 05:09:00;;;;;;;34.95;21.02;;;;;;;2.29;100.00;99886.47;5012460;28;20483;-66
2023/12/02 05:11:25;;;;;;;38.33;23.25;;;;;;;2.32;100.00;99890.09;5012218;28;20030;-62
2023/12/02 05:13:51;;;;;;;41.53;23.23;;;;;;;2.47;100.00;99894.34;5012168;28;20438;-65
2023/12/02 05:16:16;;;;;;;42.35;24.50;;;;;;;2.54;100.00;99893.91;5011872;28;20044;-64
2023/12/02 05:18:42;;;;;;;42.50;23.98;;;;;;;2.09;100.00;99785.19;5011932;28;20034;-64
2023/12/02 05:21:09;;;;;;;36.22;22.52;;;;;;;2.34;100.00;99822.28;5010383;28;20033;-65
2023/12/02 05:23:35;;;;;;;35.60;22.58;;;;;;;2.59;100.00;99864.50;5011647;28;20121;-64
2023/12/02 05:26:01;;;;;;;37.13;23.05;;;;;;;2.79;100.00;99880.09;5011735;28;20054;-68
2023/12/02 05:28:27;;;;;;;39.22;21.95;;;;;;;2.82;100.00;99883.69;5011959;28;20045;-64
2023/12/02 05:30:53;;;;;;;34.15;21.10;;;;;;;2.89;100.00;99901.13;5011861;28;20468;-65
2023/12/02 05:33:22;;;;;;;39.35;20.67;;;;;;;2.91;100.00;99911.41;5011926;28;20458;-65
2023/12/02 05:35:50;;;;;;;38.08;22.15;;;;;;;2.71;100.00;99898.34;5011791;28;20405;-65
2023/12/02 05:38:16;;;;;;;34.77;20.50;;;;;;;2.75;100.00;99887.56;5009673;28;20037;-67
2023/12/02 05:40:42;;;;;;;38.30;22.02;;;;;;;2.91;100.00;99909.72;5011320;28;20037;-66
2023/12/02 05:43:08;;;;;;;37.90;22.58;;;;;;;2.88;100.00;99901.91;4992799;28;20038;-68
2023/12/02 05:45:34;;;;;;;38.10;22.48;;;;;;;2.95;100.00;99895.47;5011641;28;20061;-65
2023/12/02 05:47:59;;;;;;;41.65;24.58;;;;;;;2.96;100.00;99892.13;5011352;28;20515;-70
2023/12/02 05:50:26;;;;;;;40.72;22.58;;;;;;;2.38;100.00;99797.84;5011513;28;20091;-66
2023/12/02 05:52:51;;;;;;;47.60;23.88;;;;;;;2.98;100.00;99897.31;5011660;28;20033;-64
2023/12/02 05:55:17;;;;;;;49.67;24.23;;;;;;;2.95;100.00;99895.47;5011576;28;20022;-67
2023/12/02 05:57:46;;;;;;;51.05;25.02;;;;;;;2.93;100.00;99891.97;5011490;28;20385;-66
2023/12/02 06:00:13;;;;;;;51.22;26.80;;;;;;;2.86;100.00;99854.16;5011358;28;20483;-66
2023/12/02 06:02:39;;;;;;;69.88;35.13;;;;;;;2.56;100.00;99805.72;5026558;28;20125;-66
2023/12/02 06:05:06;;;;;;;69.03;33.63;;;;;;;3.00;100.00;99873.66;5011282;28;20553;-67
2023/12/02 06:07:32;;;;;;;61.53;31.80;;;;;;;3.08;100.00;99877.53;5008972;28;20129;-66
2023/12/02 06:09:57;;;;;;;56.47;28.50;;;;;;;3.00;100.00;99883.88;5007026;28;20061;-66
2023/12/02 06:12:23;;;;;;;69.45;30.10;;;;;;;2.25;100.00;99776.75;5009766;28;20117;-64
2023/12/02 06:14:49;;;;;;;59.22;29.20;;;;;;;2.80;100.00;99886.94;5010176;28;20049;-66
2023/12/02 06:17:15;;;;;;;63.33;28.33;;;;;;;2.58;100.00;99898.44;5009120;28;20021;-66
2023/12/02 06:19:40;;;;;;;54.97;25.23;;;;;;;2.42;100.00;99897.50;5007752;28;20080;-65
2023/12/02 06:22:06;;;;;;;61.55;26.90;;;;;;;2.08;100.00;99909.84;5008590;28;20091;-65
2023/12/02 06:24:31;;;;;;;67.43;27.20;;;;;;;2.16;100.00;99908.66;5007929;28;20061;-66
2023/12/02 06:26:57;;;;;;;53.20;25.25;;;;;;;1.67;100.00;99804.72;5010168;28;20057;-66
2023/12/02 06:29:22;;;;;;;62.10;23.25;;;;;;;2.28;100.00;99895.81;5010515;28;20432;-66
2023/12/02 06:31:50;;;;;;;56.83;23.38;;;;;;;2.37;100.00;99898.03;5010765;28;20038;-66
2023/12/02 06:34:16;;;;;;;79.70;25.67;;;;;;;2.48;100.00;99897.00;5010847;28;20037;-66
2023/12/02 06:36:41;;;;;;;75.25;26.25;;;;;;;2.59;100.00;99900.16;5010868;28;20022;-66
2023/12/02 06:39:07;;;;;;;79.53;25.80;;;;;;;2.55;100.00;99893.13;5010862;28;20026;-66
2023/12/02 06:41:33;;;;;;;64.05;24.30;;;;;;;2.67;100.00;99916.81;5010719;28;20037;-65
2023/12/02 06:43:58;;;;;;;66.82;22.40;;;;;;;2.09;100.00;99823.38;5010874;28;20495;-65
2023/12/02 06:46:24;;;;;;;62.70;23.77;;;;;;;2.77;100.00;99915.69;5009408;28;20034;-67
2023/12/02 06:48:50;;;;;;;65.53;22.35;;;;;;;2.80;100.00;99892.91;5010629;28;20033;-71
2023/12/02 06:51:16;;;;;;;55.53;23.10;;;;;;;2.38;100.00;99819.13;5014390;28;20037;-65
2023/12/02 06:53:42;;;;;;;52.90;22.90;;;;;;;2.94;100.00;99897.94;5014677;28;20025;-66
2023/12/02 06:56:21;;;;;;;44.72;23.00;;;;;;;3.07;100.00;99921.69;5013552;28;20036;-66
2023/12/02 06:58:48;;;;;;;37.20;21.15;;;;;;;3.12;100.00;99898.13;5014489;28;20109;-66
2023/12/02 07:01:31;;;;;;;35.92;21.42;;;;;;;2.75;100.00;99810.19;5014644;28;20022;-64
2023/12/02 07:03:58;;;;;;;38.03;22.23;;;;;;;3.33;100.00;99893.38;5014534;28;20049;-67
2023/12/02 07:06:44;;;;;;;34.70;21.67;;;;;;;3.10;100.00;99818.97;5011705;28;20037;-67
2023/12/02 07:09:11;;;;;;;37.67;21.58;;;;;;;3.60;100.00;99872.72;5011875;28;20038;-67
2023/12/02 07:11:37;;;;;;;34.47;21.73;;;;;;;3.67;100.00;99877.38;5011586;28;20049;-68
2023/12/02 07:14:03;;;;;;;41.03;22.48;;;;;;;3.57;100.00;99891.31;5011805;28;20030;-66
2023/12/02 07:16:28;;;;;;;43.58;22.40;;;;;;;3.49;100.00;99895.09;5011569;28;20044;-66
2023/12/02 07:18:54;;;;;;;39.00;21.95;;;;;;;3.54;100.00;99878.41;5011681;28;20034;-71
2023/12/02 07:21:19;;;;;;;40.70;21.67;;;;;;;3.61;100.00;99880.47;4995051;28;20042;-66
2023/12/02 07:23:45;;;;;;;36.67;22.15;;;;;;;3.38;100.00;99831.59;4994918;28;20125;-65
2023/12/02 07:26:10;;;;;;;38.22;21.58;;;;;;;3.56;100.00;99857.25;5011149;28;20056;-65
2023/12/02 07:28:36;;;;;;;35.67;21.48;;;;;;;3.52;100.00;99854.44;5011401;28;20189;-65
2023/12/02 07:31:03;;;;;;;36.65;20.08;;;;;;;3.01;100.00;99801.47;5011047;28;20061;-66
2023/12/02 07:33:48;;;;;;;32.70;19.60;;;;;;;3.40;100.00;99898.91;5011258;28;20103;-65
2023/12/02 07:36:14;;;;;;;31.77;19.13;;;;;;;3.08;100.00;99895.41;4991713;28;20034;-65
2023/12/02 07:38:40;;;;;;;40.63;20.60;;;;;;;3.14;100.00;99906.75;4991353;28;20525;-64
2023/12/02 07:41:09;;;;;;;42.17;21.77;;;;;;;3.18;100.00;99913.78;4990191;28;20046;-65
2023/12/02 07:43:35;;;;;;;42.90;23.65;;;;;;;3.20;100.00;99914.75;4988953;28;20085;-68
2023/12/02 07:46:00;;;;;;;42.08;23.67;;;;;;;2.90;100.00;99838.25;4989033;28;20499;-66
2023/12/02 07:48:26;;;;;;;42.97;22.27;;;;;;;3.01;100.00;99849.06;4989584;28;20521;-67
2023/12/02 07:50:51;;;;;;;81.22;43.97;;;;;;;3.49;100.00;99921.50;4972895;28;20042;-67
2023/12/02 07:53:17;;;;;;;64.03;36.58;;;;;;;3.64;100.00;99921.50;4989330;28;20034;-67
2023/12/02 07:55:42;;;;;;;54.92;27.30;;;;;;;3.85;100.00;99926.91;4989187;28;20042;-64
2023/12/02 07:58:08;;;;;;;56.00;28.63;;;;;;;3.92;100.00;99933.22;4989000;28;20045;-66
2023/12/02 08:00:34;;;;;;;53.13;30.88;;;;;;;3.99;100.00;99931.91;4988812;28;20030;-65
2023/12/02 08:02:59;;;;;;;62.45;26.08;;;;;;;3.46;100.00;99829.47;4988199;28;20046;-66
2023/12/02 08:05:25;;;;;;;51.45;26.63;;;;;;;4.18;100.00;99931.22;4989183;28;20089;-66
2023/12/02 08:07:51;;;;;;;61.95;29.58;;;;;;;4.23;100.00;99923.81;5005839;28;20046;-66
2023/12/02 08:10:17;;;;;;;54.95;28.45;;;;;;;4.35;100.00;99932.13;5011983;28;20026;-65
2023/12/02 08:12:44;;;;;;;63.00;31.15;;;;;;;4.40;100.00;99932.34;5011197;28;20073;-66
2023/12/02 08:15:09;;;;;;;63.22;29.92;;;;;;;4.46;100.00;99936.13;5011252;28;20598;-66
2023/12/02 08:17:35;;;;;;;58.40;28.35;;;;;;;4.43;100.00;99912.94;5010936;28;20042;-67
2023/12/02 08:20:02;;;;;;;81.28;45.40;;;;;;;4.61;100.00;99920.72;5011287;28;20030;-67
2023/12/02 08:22:28;;;;;;;56.50;30.13;;;;;;;4.60;100.00;99918.06;5027909;28;20030;-67
2023/12/02 08:24:53;;;;;;;52.58;28.02;;;;;;;4.66;100.00;99915.81;5012979;28;20036;-66
2023/12/02 08:27:20;;;;;;;54.10;28.48;;;;;;;4.81;100.00;99916.63;5013061;28;20042;-70
2023/12/02 08:29:45;;;;;;;43.60;26.50;;;;;;;4.89;100.00;99924.69;5012682;28;20504;-66
2023/12/02 08:32:11;;;;;;;48.97;27.98;;;;;;;4.92;100.00;99906.94;5012886;28;20057;-66
2023/12/02 08:34:36;;;;;;;55.75;29.05;;;;;;;4.97;100.00;99904.59;5012648;28;20108;-68
2023/12/02 08:37:01;;;;;;;56.20;27.70;;;;;;;5.06;100.00;99901.63;5012715;28;20098;-66
2023/12/02 08:39:27;;;;;;;52.35;27.85;;;;;;;5.08;100.00;99894.91;5012702;28;20033;-67
2023/12/02 08:41:53;;;;;;;51.10;26.42;;;;;;;5.27;100.00;99902.69;5012221;28;20515;-66
2023/12/02 08:44:18;;;;;;;50.47;28.67;;;;;;;5.09;100.00;99868.53;5013103;28;20034;-72
2023/12/02 08:46:44;;;;;;;57.58;28.27;;;;;;;5.14;100.00;99877.28;5012486;28;20026;-67
2023/12/02 08:49:09;;;;;;;61.25;31.65;;;;;;;5.37;100.00;99915.94;5012294;28;20033;-66
2023/12/02 08:51:35;;;;;;;59.00;30.83;;;;;;;5.40;100.00;99911.84;5012154;28;20065;-66
2023/12/02 08:54:01;;;;;;;60.65;30.92;;;;;;;5.45;100.00;99912.94;5012628;28;20408;-66
2023/12/02 08:56:28;;;;;;;57.97;31.27;;;;;;;5.54;100.00;99915.06;5012555;28;20032;-66
2023/12/02 08:58:54;;;;;;;70.65;39.30;;;;;;;5.10;100.00;99826.78;5012399;28;20022;-67
2023/12/02 09:01:22;;;;;;;72.53;41.47;;;;;;;5.73;100.00;99921.06;5012255;28;20033;-66
2023/12/02 09:03:48;;;;;;;66.43;38.40;;;;;;;5.89;100.00;99915.84;5012409;28;20036;-66
2023/12/02 09:06:14;;;;;;;57.22;34.95;;;;;;;5.39;100.00;99804.25;5012180;28;20025;-70
2023/12/02 09:08:39;;;;;;;50.60;30.83;;;;;;;5.99;100.00;99897.59;5012336;28;20396;-66
2023/12/02 09:11:05;;;;;;;43.03;26.88;;;;;;;6.10;100.00;99895.50;5012155;28;20021;-69
2023/12/02 09:13:40;;;;;;;51.00;29.05;;;;;;;6.22;100.00;99897.75;5011109;28;20030;-66
2023/12/02 09:16:19;;;;;;;43.70;28.50;;;;;;;6.35;100.00;99885.50;5011838;28;20140;-67
2023/12/02 09:18:45;;;;;;;41.10;26.15;;;;;;;6.36;100.00;99871.88;5012091;28;20029;-66
2023/12/02 09:21:37;;;;;;;38.13;23.58;;;;;;;6.60;100.00;99874.59;5011575;28;20030;-66
2023/12/02 09:24:04;;;;;;;40.88;25.02;;;;;;;6.79;100.00;99873.69;4931597;29;20036;-67
2023/12/02 09:26:40;;;;;;;39.88;25.60;;;;;;;6.93;100.00;99862.34;4930739;29;20055;-65
2023/12/02 09:29:06;;;;;;;42.28;26.63;;;;;;;6.96;100.00;99848.75;4929281;29;20144;-66
2023/12/02 09:31:32;;;;;;;38.67;23.90;;;;;;;7.09;100.00;99852.69;4929393;29;20976;-72
2023/12/02 09:34:02;;;;;;;38.85;24.73;;;;;;;7.24;100.00;99839.59;4929535;29;20035;-66
2023/12/02 09:36:39;;;;;;;32.67;23.48;;;;;;;7.25;100.00;99820.81;4929530;29;20043;-66
2023/12/02 09:39:11;;;;;;;32.97;23.08;;;;;;;7.36;100.00;99822.13;4929469;29;20050;-72
2023/12/02 09:41:49;;;;;;;36.35;24.13;;;;;;;7.06;100.00;99749.91;4929324;29;20055;-66
2023/12/02 09:44:29;;;;;;;35.55;23.55;;;;;;;7.55;100.00;99826.31;4931593;29;20042;-66
2023/12/02 09:47:02;;;;;;;32.92;23.15;;;;;;;7.60;100.00;99817.06;4931296;29;20031;-67
2023/12/02 09:49:46;;;;;;;37.78;23.73;;;;;;;7.69;100.00;99807.94;4931320;29;20031;-67
2023/12/02 09:52:24;;;;;;;36.05;23.52;;;;;;;7.84;100.00;99813.69;4931371;29;20128;-67
2023/12/02 09:55:14;;;;;;;33.25;23.65;;;;;;;7.49;100.00;99737.84;4931436;29;20044;-67
2023/12/02 09:57:45;;;;;;;30.92;22.38;;;;;;;7.97;100.00;99799.56;4931371;29;20122;-67
2023/12/02 10:00:21;;;;;;;30.52;22.55;;;;;;;8.13;100.00;99807.88;4943483;28;20526;-65
2023/12/02 10:02:53;;;;;;;35.15;23.42;;;;;;;8.23;100.00;99795.38;5009950;28;20029;-65
2023/12/02 10:05:19;;;;;;;35.28;23.15;;;;;;;8.26;100.00;99803.22;5009689;28;20034;-67
2023/12/02 10:08:00;;;;;;;35.05;23.67;;;;;;;8.31;100.00;99802.47;5009162;28;20025;-66
2023/12/02 10:10:30;;;;;;;34.35;24.33;;;;;;;8.39;100.00;99801.06;5008793;28;20395;-66
2023/12/02 10:13:15;;;;;;;34.63;24.90;;;;;;;8.38;100.00;99795.03;5008894;28;20040;-70
2023/12/02 10:15:42;;;;;;;36.75;26.25;;;;;;;8.44;100.00;99789.25;5008936;28;20026;-66
2023/12/02 10:18:15;;;;;;;67.85;45.33;;;;;;;8.50;100.00;99789.47;5010114;28;20033;-72
2023/12/02 10:20:42;;;;;;;49.70;35.45;;;;;;;8.52;100.00;99764.69;5023416;28;20026;-68
2023/12/02 10:23:24;;;;;;;44.03;32.10;;;;;;;8.77;100.00;99778.34;5010175;28;20056;-66
2023/12/02 10:26:13;;;;;;;48.65;38.42;;;;;;;8.74;100.00;99758.53;5009352;28;20036;-66
2023/12/02 10:28:56;;;;;;;39.45;28.30;;;;;;;8.76;100.00;99766.34;5010289;28;20034;-68
2023/12/02 10:31:27;;;;;;;43.00;30.73;;;;;;;8.87;100.00;99777.84;5008584;28;20033;-67
2023/12/02 10:34:11;;;;;;;41.70;29.13;;;;;;;8.48;100.00;99689.94;5010441;28;20045;-66
2023/12/02 10:36:38;;;;;;;44.00;29.92;;;;;;;9.06;100.00;99781.03;5008193;28;20033;-66
2023/12/02 10:39:10;;;;;;;48.53;33.70;;;;;;;8.79;100.00;99703.78;5005964;28;20033;-64
2023/12/02 10:41:51;;;;;;;46.70;34.53;;;;;;;8.88;100.00;99720.41;5010212;28;20026;-68
2023/12/02 10:44:20;;;;;;;49.25;32.28;;;;;;;9.28;100.00;99769.66;5009247;28;20100;-66
2023/12/02 10:46:53;;;;;;;41.53;30.90;;;;;;;9.30;100.00;99765.44;5005303;28;20026;-64
2023/12/02 10:49:19;;;;;;;47.22;31.92;;;;;;;9.25;100.00;99733.53;5005895;28;20087;-66
2023/12/02 10:51:48;;;;;;;42.97;31.45;;;;;;;9.22;100.00;99726.59;5003332;28;20034;-66
2023/12/02 10:54:17;;;;;;;45.97;33.83;;;;;;;9.37;100.00;99745.88;5003675;28;20042;-66
2023/12/02 10:56:46;;;;;;;46.97;34.63;;;;;;;9.49;100.00;99743.69;5008129;28;20121;-71
2023/12/02 10:59:13;;;;;;;47.72;33.80;;;;;;;9.46;100.00;99725.56;4968688;28;20035;-64
2023/12/02 11:01:45;;;;;;;46.13;33.22;;;;;;;9.54;100.00;99731.84;5006918;28;20049;-66
2023/12/02 11:04:18;;;;;;;41.70;31.48;;;;;;;9.17;100.00;99656.03;5024252;28;20060;-65
2023/12/02 11:06:50;;;;;;;47.05;33.30;;;;;;;9.63;100.00;99725.19;5003227;28;20134;-65
2023/12/02 11:09:31;;;;;;;51.00;32.33;;;;;;;9.67;100.00;99721.84;5005874;28;20030;-64
2023/12/02 11:12:26;;;;;;;43.88;29.50;;;;;;;9.69;100.00;99717.63;5004787;28;20026;-70
2023/12/02 11:15:03;;;;;;;40.47;28.08;;;;;;;9.65;100.00;99706.34;5007809;28;20473;-69
2023/12/02 11:17:56;;;;;;;43.70;30.85;;;;;;;9.77;100.00;99705.84;5004896;28;20069;-66